sensor_id;sensor_type;location;lat;lon;timestamp;pressure;altitude;pressure_sealevel;temperature;humidity
48652;BME280;34442;52.362;-1.302;2022-08-11T00:01:46;101040.19;;;21.08;69.06
48652;BME280;34442;52.362;-1.302;2022-08-11T00:04:13;101047.31;;;21.09;68.04
48652;BME280;34442;52.362;-1.302;2022-08-11T00:06:41;101047.00;;;21.05;68.18
48652;BME280;34442;52.362;-1.302;2022-08-11T00:09:12;101047.50;;;21.02;68.56
48652;BME280;34442;52.362;-1.302;2022-08-11T00:11:44;101043.66;;;20.98;68.98
48652;BME280;34442;52.362;-1.302;2022-08-11T00:16:40;101032.13;;;20.91;68.60
48652;BME280;34442;52.362;-1.302;2022-08-11T00:19:07;101033.97;;;20.85;68.87
48652;BME280;34442;52.362;-1.302;2022-08-11T00:21:40;101032.63;;;20.88;70.51
48652;BME280;34442;52.362;-1.302;2022-08-11T00:24:06;101034.50;;;20.82;69.12
48652;BME280;34442;52.362;-1.302;2022-08-11T00:26:34;101034.19;;;20.78;69.36
48652;BME280;34442;52.362;-1.302;2022-08-11T00:29:09;101034.50;;;20.82;71.21
48652;BME280;34442;52.362;-1.302;2022-08-11T00:31:35;101027.38;;;20.81;69.28
48652;BME280;34442;52.362;-1.302;2022-08-11T00:34:05;101034.44;;;20.77;69.60
48652;BME280;34442;52.362;-1.302;2022-08-11T00:36:42;101035.03;;;20.79;71.59
48652;BME280;34442;52.362;-1.302;2022-08-11T00:39:10;101041.25;;;20.74;69.60
48652;BME280;34442;52.362;-1.302;2022-08-11T00:41:43;101036.56;;;20.70;70.47
48652;BME280;34442;52.362;-1.302;2022-08-11T00:44:36;101039.53;;;20.68;74.49
48652;BME280;34442;52.362;-1.302;2022-08-11T00:56:32;101023.06;;;20.58;71.00
48652;BME280;34442;52.362;-1.302;2022-08-11T00:59:25;101029.03;;;20.55;74.91
48652;BME280;34442;52.362;-1.302;2022-08-11T01:02:18;101029.31;;;20.53;73.32
48652;BME280;34442;52.362;-1.302;2022-08-11T01:04:59;101030.53;;;20.46;71.26
48652;BME280;34442;52.362;-1.302;2022-08-11T01:18:52;101034.88;;;20.42;76.04
48652;BME280;34442;52.362;-1.302;2022-08-11T01:35:32;101024.03;;;20.25;77.53
48652;BME280;34442;52.362;-1.302;2022-08-11T01:41:06;101022.06;;;20.20;81.97
48652;BME280;34442;52.362;-1.302;2022-08-11T01:46:42;101013.75;;;20.10;74.30
48652;BME280;34442;52.362;-1.302;2022-08-11T01:49:53;101016.41;;;20.05;74.14
48652;BME280;34442;52.362;-1.302;2022-08-11T01:52:16;101012.59;;;20.06;78.24
48652;BME280;34442;52.362;-1.302;2022-08-11T01:55:02;101015.81;;;20.03;76.14
48652;BME280;34442;52.362;-1.302;2022-08-11T01:57:42;101014.19;;;20.02;77.48
48652;BME280;34442;52.362;-1.302;2022-08-11T02:00:18;101014.44;;;20.00;76.60
48652;BME280;34442;52.362;-1.302;2022-08-11T02:03:19;101013.63;;;20.00;79.89
48652;BME280;34442;52.362;-1.302;2022-08-11T02:08:58;101025.22;;;19.90;76.64
48652;BME280;34442;52.362;-1.302;2022-08-11T02:11:31;101025.16;;;19.85;76.67
48652;BME280;34442;52.362;-1.302;2022-08-11T02:14:38;101019.97;;;19.83;80.69
48652;BME280;34442;52.362;-1.302;2022-08-11T02:23:03;101023.19;;;19.80;80.91
48652;BME280;34442;52.362;-1.302;2022-08-11T02:34:46;101025.19;;;19.68;80.69
48652;BME280;34442;52.362;-1.302;2022-08-11T02:37:21;101023.22;;;19.64;77.98
48652;BME280;34442;52.362;-1.302;2022-08-11T02:40:15;101024.78;;;19.59;82.78
48652;BME280;34442;52.362;-1.302;2022-08-11T02:45:40;101015.66;;;19.54;83.51
48652;BME280;34442;52.362;-1.302;2022-08-11T02:48:24;101019.41;;;19.48;77.80
48652;BME280;34442;52.362;-1.302;2022-08-11T02:56:50;101028.84;;;19.23;84.55
48652;BME280;34442;52.362;-1.302;2022-08-11T03:13:36;101021.00;;;19.10;80.47
48652;BME280;34442;52.362;-1.302;2022-08-11T03:16:36;101018.09;;;19.00;83.96
48652;BME280;34442;52.362;-1.302;2022-08-11T03:22:23;101021.28;;;18.80;87.11
48652;BME280;34442;52.362;-1.302;2022-08-11T03:30:41;101022.06;;;18.64;88.28
48652;BME280;34442;52.362;-1.302;2022-08-11T03:36:32;101029.31;;;18.58;83.50
48652;BME280;34442;52.362;-1.302;2022-08-11T03:39:05;101027.19;;;18.60;86.40
48652;BME280;34442;52.362;-1.302;2022-08-11T03:45:02;101039.53;;;18.51;89.04
48652;BME280;34442;52.362;-1.302;2022-08-11T03:50:09;101040.41;;;18.40;85.76
48652;BME280;34442;52.362;-1.302;2022-08-11T03:52:48;101032.13;;;18.34;84.64
48652;BME280;34442;52.362;-1.302;2022-08-11T04:09:19;101027.34;;;18.13;88.15
48652;BME280;34442;52.362;-1.302;2022-08-11T04:15:01;101022.88;;;18.07;90.81
48652;BME280;34442;52.362;-1.302;2022-08-11T04:32:29;101021.72;;;17.91;92.48
48652;BME280;34442;52.362;-1.302;2022-08-11T04:41:27;101022.53;;;17.92;90.01
48652;BME280;34442;52.362;-1.302;2022-08-11T04:48:01;101023.97;;;17.94;92.38
48652;BME280;34442;52.362;-1.302;2022-08-11T04:54:20;101027.53;;;17.83;95.10
48652;BME280;34442;52.362;-1.302;2022-08-11T04:57:18;101027.19;;;17.79;91.97
48652;BME280;34442;52.362;-1.302;2022-08-11T05:00:12;101023.38;;;17.80;90.51
48652;BME280;34442;52.362;-1.302;2022-08-11T05:11:36;101033.09;;;17.76;92.68
48652;BME280;34442;52.362;-1.302;2022-08-11T05:17:10;101031.75;;;17.67;97.81
48652;BME280;34442;52.362;-1.302;2022-08-11T05:19:56;101033.06;;;17.65;89.64
48652;BME280;34442;52.362;-1.302;2022-08-11T05:22:49;101035.06;;;17.69;91.37
48652;BME280;34442;52.362;-1.302;2022-08-11T05:25:35;101036.13;;;17.68;89.60
48652;BME280;34442;52.362;-1.302;2022-08-11T05:28:31;101044.06;;;17.70;90.48
48652;BME280;34442;52.362;-1.302;2022-08-11T05:31:19;101047.50;;;17.77;89.56
48652;BME280;34442;52.362;-1.302;2022-08-11T05:34:18;101042.88;;;17.77;92.45
48652;BME280;34442;52.362;-1.302;2022-08-11T05:37:53;101051.19;;;17.82;89.73
48652;BME280;34442;52.362;-1.302;2022-08-11T05:40:14;101040.97;;;17.90;95.42
48652;BME280;34442;52.362;-1.302;2022-08-11T05:43:02;101038.16;;;17.96;88.73
48652;BME280;34442;52.362;-1.302;2022-08-11T05:45:58;101039.78;;;17.97;91.83
48652;BME280;34442;52.362;-1.302;2022-08-11T05:48:44;101036.94;;;18.04;88.77
48652;BME280;34442;52.362;-1.302;2022-08-11T05:51:36;101031.72;;;18.14;90.60
48652;BME280;34442;52.362;-1.302;2022-08-11T05:54:23;101035.81;;;18.28;87.89
48652;BME280;34442;52.362;-1.302;2022-08-11T05:57:18;101027.66;;;18.28;91.31
48652;BME280;34442;52.362;-1.302;2022-08-11T05:59:46;101030.13;;;18.30;89.17
48652;BME280;34442;52.362;-1.302;2022-08-11T06:02:16;101034.97;;;18.40;87.83
48652;BME280;34442;52.362;-1.302;2022-08-11T06:04:43;101036.44;;;18.47;87.27
48652;BME280;34442;52.362;-1.302;2022-08-11T06:07:10;101042.69;;;18.59;87.00
48652;BME280;34442;52.362;-1.302;2022-08-11T06:09:46;101039.94;;;18.71;86.41
48652;BME280;34442;52.362;-1.302;2022-08-11T06:14:49;101046.50;;;18.87;86.84
48652;BME280;34442;52.362;-1.302;2022-08-11T06:17:25;101049.63;;;18.96;88.07
48652;BME280;34442;52.362;-1.302;2022-08-11T06:19:59;101044.19;;;18.96;87.90
48652;BME280;34442;52.362;-1.302;2022-08-11T06:22:26;101042.13;;;19.03;86.34
48652;BME280;34442;52.362;-1.302;2022-08-11T06:24:58;101043.97;;;18.97;87.86
48652;BME280;34442;52.362;-1.302;2022-08-11T06:27:27;101043.44;;;19.17;86.20
48652;BME280;34442;52.362;-1.302;2022-08-11T06:29:55;101040.84;;;19.22;85.64
48652;BME280;34442;52.362;-1.302;2022-08-11T06:32:26;101040.31;;;19.25;87.08
48652;BME280;34442;52.362;-1.302;2022-08-11T06:35:21;101038.19;;;19.27;89.79
48652;BME280;34442;52.362;-1.302;2022-08-11T06:43:20;101036.50;;;19.60;89.18
48652;BME280;34442;52.362;-1.302;2022-08-11T06:45:59;101024.19;;;19.57;87.28
48652;BME280;34442;52.362;-1.302;2022-08-11T06:48:31;101027.88;;;19.63;84.61
48652;BME280;34442;52.362;-1.302;2022-08-11T06:51:01;101031.16;;;19.65;85.17
48652;BME280;34442;52.362;-1.302;2022-08-11T06:53:55;101031.09;;;19.82;86.46
48652;BME280;34442;52.362;-1.302;2022-08-11T06:56:34;101025.41;;;19.83;83.83
48652;BME280;34442;52.362;-1.302;2022-08-11T06:59:21;101036.47;;;19.94;83.93
48652;BME280;34442;52.362;-1.302;2022-08-11T07:02:19;101028.28;;;19.94;86.57
48652;BME280;34442;52.362;-1.302;2022-08-11T07:05:00;101032.84;;;20.10;86.16
48652;BME280;34442;52.362;-1.302;2022-08-11T07:14:00;101021.66;;;20.33;82.13
48652;BME280;34442;52.362;-1.302;2022-08-11T07:16:48;101019.53;;;20.41;81.81
48652;BME280;34442;52.362;-1.302;2022-08-11T07:19:24;101019.34;;;20.47;82.92
48652;BME280;34442;52.362;-1.302;2022-08-11T07:22:10;101013.41;;;20.50;81.28
48652;BME280;34442;52.362;-1.302;2022-08-11T07:25:09;101017.06;;;20.61;82.24
48652;BME280;34442;52.362;-1.302;2022-08-11T07:28:04;101022.84;;;20.65;81.81
48652;BME280;34442;52.362;-1.302;2022-08-11T07:30:54;101021.34;;;20.79;80.59
48652;BME280;34442;52.362;-1.302;2022-08-11T07:33:31;101019.25;;;20.86;82.83
48652;BME280;34442;52.362;-1.302;2022-08-11T07:36:04;101023.63;;;20.87;79.16
48652;BME280;34442;52.362;-1.302;2022-08-11T07:38:46;101020.63;;;20.89;80.56
48652;BME280;34442;52.362;-1.302;2022-08-11T07:41:18;101022.34;;;21.00;82.94
48652;BME280;34442;52.362;-1.302;2022-08-11T07:43:48;101029.50;;;21.06;79.07
48652;BME280;34442;52.362;-1.302;2022-08-11T07:46:15;101021.88;;;21.08;78.97
48652;BME280;34442;52.362;-1.302;2022-08-11T07:49:02;101027.13;;;21.15;78.54
48652;BME280;34442;52.362;-1.302;2022-08-11T07:51:47;101031.41;;;21.33;77.72
48652;BME280;34442;52.362;-1.302;2022-08-11T07:54:34;101029.22;;;21.35;77.99
48652;BME280;34442;52.362;-1.302;2022-08-11T07:57:04;101028.22;;;21.46;77.67
48652;BME280;34442;52.362;-1.302;2022-08-11T07:59:49;101031.59;;;21.63;76.37
48652;BME280;34442;52.362;-1.302;2022-08-11T08:02:34;101030.25;;;21.66;75.73
48652;BME280;34442;52.362;-1.302;2022-08-11T08:05:19;101028.38;;;21.76;75.39
48652;BME280;34442;52.362;-1.302;2022-08-11T08:08:06;101033.13;;;21.86;74.82
48652;BME280;34442;52.362;-1.302;2022-08-11T08:10:53;101029.28;;;21.87;74.62
48652;BME280;34442;52.362;-1.302;2022-08-11T08:13:40;101024.97;;;22.01;74.49
48652;BME280;34442;52.362;-1.302;2022-08-11T08:16:25;101024.00;;;22.23;74.20
48652;BME280;34442;52.362;-1.302;2022-08-11T08:19:15;101018.59;;;22.43;72.85
48652;BME280;34442;52.362;-1.302;2022-08-11T08:21:43;101012.00;;;22.54;71.40
48652;BME280;34442;52.362;-1.302;2022-08-11T08:24:10;101014.53;;;22.71;71.10
48652;BME280;34442;52.362;-1.302;2022-08-11T08:26:37;101017.28;;;22.87;70.72
48652;BME280;34442;52.362;-1.302;2022-08-11T08:29:22;101020.03;;;22.92;70.38
48652;BME280;34442;52.362;-1.302;2022-08-11T08:32:07;101012.94;;;23.06;69.81
48652;BME280;34442;52.362;-1.302;2022-08-11T08:34:36;101016.50;;;23.07;69.40
48652;BME280;34442;52.362;-1.302;2022-08-11T08:37:05;101015.94;;;23.15;68.80
48652;BME280;34442;52.362;-1.302;2022-08-11T08:39:32;101012.94;;;23.21;68.29
48652;BME280;34442;52.362;-1.302;2022-08-11T08:42:02;101012.91;;;23.37;66.97
48652;BME280;34442;52.362;-1.302;2022-08-11T08:44:32;101008.22;;;23.47;65.83
48652;BME280;34442;52.362;-1.302;2022-08-11T08:47:00;101015.34;;;23.53;65.72
48652;BME280;34442;52.362;-1.302;2022-08-11T08:49:34;101005.19;;;23.74;64.59
48652;BME280;34442;52.362;-1.302;2022-08-11T08:52:03;101007.84;;;23.90;63.85
48652;BME280;34442;52.362;-1.302;2022-08-11T08:54:38;101012.28;;;23.91;61.01
48652;BME280;34442;52.362;-1.302;2022-08-11T08:57:08;101000.94;;;24.02;62.38
48652;BME280;34442;52.362;-1.302;2022-08-11T08:59:43;101002.50;;;24.24;57.93
48652;BME280;34442;52.362;-1.302;2022-08-11T09:02:10;100994.00;;;24.20;61.08
48652;BME280;34442;52.362;-1.302;2022-08-11T09:04:39;101000.84;;;24.23;60.16
48652;BME280;34442;52.362;-1.302;2022-08-11T09:07:08;100993.75;;;24.17;59.38
48652;BME280;34442;52.362;-1.302;2022-08-11T09:09:35;100996.69;;;24.31;59.05
48652;BME280;34442;52.362;-1.302;2022-08-11T09:12:02;100995.56;;;24.37;58.74
48652;BME280;34442;52.362;-1.302;2022-08-11T09:14:38;100989.97;;;24.52;54.70
48652;BME280;34442;52.362;-1.302;2022-08-11T09:17:24;100991.25;;;24.70;57.54
48652;BME280;34442;52.362;-1.302;2022-08-11T09:19:58;100983.50;;;24.77;52.98
48652;BME280;34442;52.362;-1.302;2022-08-11T09:22:26;100984.84;;;24.80;56.00
48652;BME280;34442;52.362;-1.302;2022-08-11T09:25:12;100974.84;;;24.94;55.51
48652;BME280;34442;52.362;-1.302;2022-08-11T09:27:58;100979.09;;;25.15;54.90
48652;BME280;34442;52.362;-1.302;2022-08-11T09:30:26;100978.41;;;25.29;54.44
48652;BME280;34442;52.362;-1.302;2022-08-11T09:32:58;100979.63;;;25.41;49.54
48652;BME280;34442;52.362;-1.302;2022-08-11T09:35:26;100980.44;;;25.47;52.52
48652;BME280;34442;52.362;-1.302;2022-08-11T09:37:55;100978.94;;;25.55;52.26
48652;BME280;34442;52.362;-1.302;2022-08-11T09:40:43;100981.34;;;25.61;46.54
48652;BME280;34442;52.362;-1.302;2022-08-11T09:43:12;100974.38;;;25.45;51.26
48652;BME280;34442;52.362;-1.302;2022-08-11T09:45:58;100986.88;;;25.61;51.62
48652;BME280;34442;52.362;-1.302;2022-08-11T09:48:26;100985.31;;;25.79;51.14
48652;BME280;34442;52.362;-1.302;2022-08-11T09:50:56;100982.44;;;25.89;50.25
48652;BME280;34442;52.362;-1.302;2022-08-11T09:53:26;100972.56;;;26.07;49.69
48652;BME280;34442;52.362;-1.302;2022-08-11T09:55:53;100982.59;;;25.98;49.83
48652;BME280;34442;52.362;-1.302;2022-08-11T09:58:20;100974.41;;;25.93;48.66
48652;BME280;34442;52.362;-1.302;2022-08-11T10:00:48;100974.00;;;26.23;48.85
48652;BME280;34442;52.362;-1.302;2022-08-11T10:03:19;100968.38;;;26.29;47.90
48652;BME280;34442;52.362;-1.302;2022-08-11T10:05:48;100961.69;;;26.35;46.67
48652;BME280;34442;52.362;-1.302;2022-08-11T10:08:34;100960.78;;;26.20;46.82
48652;BME280;34442;52.362;-1.302;2022-08-11T10:11:02;100965.13;;;26.45;46.58
48652;BME280;34442;52.362;-1.302;2022-08-11T10:13:31;100965.66;;;26.66;45.68
48652;BME280;34442;52.362;-1.302;2022-08-11T10:16:24;100968.47;;;26.80;43.84
48652;BME280;34442;52.362;-1.302;2022-08-11T10:18:55;100954.72;;;26.94;44.88
48652;BME280;34442;52.362;-1.302;2022-08-11T10:21:28;100954.44;;;27.09;43.95
48652;BME280;34442;52.362;-1.302;2022-08-11T10:23:57;100954.16;;;27.11;44.01
48652;BME280;34442;52.362;-1.302;2022-08-11T10:26:44;100954.13;;;26.97;44.34
48652;BME280;34442;52.362;-1.302;2022-08-11T10:29:38;100951.78;;;26.71;35.96
48652;BME280;34442;52.362;-1.302;2022-08-11T10:32:25;100945.72;;;26.88;43.70
48652;BME280;34442;52.362;-1.302;2022-08-11T10:35:10;100947.28;;;27.08;43.30
48652;BME280;34442;52.362;-1.302;2022-08-11T10:37:40;100955.31;;;27.24;42.48
48652;BME280;34442;52.362;-1.302;2022-08-11T10:40:08;100946.22;;;27.23;42.06
48652;BME280;34442;52.362;-1.302;2022-08-11T10:42:37;100949.72;;;27.29;37.64
48652;BME280;34442;52.362;-1.302;2022-08-11T10:45:23;100949.22;;;27.40;41.46
48652;BME280;34442;52.362;-1.302;2022-08-11T10:48:08;100946.25;;;27.37;41.68
48652;BME280;34442;52.362;-1.302;2022-08-11T10:50:36;100939.59;;;27.38;41.59
48652;BME280;34442;52.362;-1.302;2022-08-11T10:53:22;100942.16;;;27.62;41.81
48652;BME280;34442;52.362;-1.302;2022-08-11T10:56:08;100935.41;;;27.54;42.02
48652;BME280;34442;52.362;-1.302;2022-08-11T10:58:53;100934.97;;;27.61;41.84
48652;BME280;34442;52.362;-1.302;2022-08-11T11:01:24;100930.28;;;27.61;41.90
48652;BME280;34442;52.362;-1.302;2022-08-11T11:03:54;100938.44;;;27.53;41.72
48652;BME280;34442;52.362;-1.302;2022-08-11T11:06:28;100916.88;;;27.55;34.69
48652;BME280;34442;52.362;-1.302;2022-08-11T11:11:31;100924.47;;;27.90;40.92
48652;BME280;34442;52.362;-1.302;2022-08-11T11:14:18;100923.84;;;27.80;41.50
48652;BME280;34442;52.362;-1.302;2022-08-11T11:17:08;100913.59;;;27.80;39.58
48652;BME280;34442;52.362;-1.302;2022-08-11T11:19:57;100894.94;;;28.00;41.23
48652;BME280;34442;52.362;-1.302;2022-08-11T11:22:27;100886.34;;;28.91;39.67
48652;BME280;34442;52.362;-1.302;2022-08-11T11:25:13;100902.53;;;29.37;37.36
48652;BME280;34442;52.362;-1.302;2022-08-11T11:28:13;100905.13;;;25.33;100.00
48652;BME280;34442;52.362;-1.302;2022-08-11T11:37:09;100904.00;;;22.25;100.00
48652;BME280;34442;52.362;-1.302;2022-08-11T11:39:10;100896.13;;;23.80;86.49
48652;BME280;34442;52.362;-1.302;2022-08-11T11:41:37;100906.22;;;24.39;81.17
48652;BME280;34442;52.362;-1.302;2022-08-11T11:44:04;100900.56;;;25.47;66.98
48652;BME280;34442;52.362;-1.302;2022-08-11T11:46:31;100895.00;;;26.33;67.41
48652;BME280;34442;52.362;-1.302;2022-08-11T11:48:59;100896.41;;;27.14;63.93
48652;BME280;34442;52.362;-1.302;2022-08-11T11:51:32;100889.34;;;28.27;57.25
48652;BME280;34442;52.362;-1.302;2022-08-11T11:53:58;100891.47;;;28.75;60.90
48652;BME280;34442;52.362;-1.302;2022-08-11T11:56:27;100891.16;;;28.99;61.40
48652;BME280;34442;52.362;-1.302;2022-08-11T11:58:54;100895.34;;;29.28;62.78
48652;BME280;34442;52.362;-1.302;2022-08-11T12:01:39;100891.09;;;29.22;63.48
48652;BME280;34442;52.362;-1.302;2022-08-11T12:04:10;100888.41;;;29.39;62.69
48652;BME280;34442;52.362;-1.302;2022-08-11T12:06:36;100889.22;;;29.48;63.20
48652;BME280;34442;52.362;-1.302;2022-08-11T12:09:04;100884.31;;;29.36;59.09
48652;BME280;34442;52.362;-1.302;2022-08-11T12:11:30;100878.13;;;29.39;60.06
48652;BME280;34442;52.362;-1.302;2022-08-11T12:14:18;100873.38;;;30.06;53.15
48652;BME280;34442;52.362;-1.302;2022-08-11T12:16:46;100872.06;;;29.86;54.35
48652;BME280;34442;52.362;-1.302;2022-08-11T12:19:18;100874.00;;;29.77;53.20
48652;BME280;34442;52.362;-1.302;2022-08-11T12:21:48;100875.16;;;29.84;52.31
48652;BME280;34442;52.362;-1.302;2022-08-11T12:24:34;100879.72;;;29.98;49.38
48652;BME280;34442;52.362;-1.302;2022-08-11T12:27:21;100867.31;;;29.78;48.73
48652;BME280;34442;52.362;-1.302;2022-08-11T12:29:54;100864.06;;;29.93;45.22
48652;BME280;34442;52.362;-1.302;2022-08-11T12:32:23;100861.31;;;30.19;46.93
48652;BME280;34442;52.362;-1.302;2022-08-11T12:34:50;100856.72;;;29.97;46.59
48652;BME280;34442;52.362;-1.302;2022-08-11T12:37:22;100845.28;;;29.64;43.59
48652;BME280;34442;52.362;-1.302;2022-08-11T12:39:50;100854.44;;;30.08;46.04
48652;BME280;34442;52.362;-1.302;2022-08-11T12:42:36;100852.19;;;30.27;42.83
48652;BME280;34442;52.362;-1.302;2022-08-11T12:45:25;100846.78;;;30.13;43.91
48652;BME280;34442;52.362;-1.302;2022-08-11T12:48:02;100848.53;;;29.66;44.16
48652;BME280;34442;52.362;-1.302;2022-08-11T12:50:53;100856.09;;;29.26;43.76
48652;BME280;34442;52.362;-1.302;2022-08-11T12:53:44;100845.66;;;29.23;43.40
48652;BME280;34442;52.362;-1.302;2022-08-11T12:56:12;100845.16;;;29.29;44.26
48652;BME280;34442;52.362;-1.302;2022-08-11T12:58:57;100833.28;;;29.29;44.20
48652;BME280;34442;52.362;-1.302;2022-08-11T13:01:43;100826.47;;;29.35;44.30
48652;BME280;34442;52.362;-1.302;2022-08-11T13:04:28;100822.91;;;29.43;43.66
48652;BME280;34442;52.362;-1.302;2022-08-11T13:07:14;100825.28;;;29.27;43.71
48652;BME280;34442;52.362;-1.302;2022-08-11T13:09:43;100824.31;;;29.23;42.18
48652;BME280;34442;52.362;-1.302;2022-08-11T13:12:10;100826.16;;;29.54;41.25
48652;BME280;34442;52.362;-1.302;2022-08-11T13:14:57;100825.06;;;29.63;39.97
48652;BME280;34442;52.362;-1.302;2022-08-11T13:17:25;100819.44;;;29.46;38.89
48652;BME280;34442;52.362;-1.302;2022-08-11T13:19:51;100812.50;;;29.66;40.00
48652;BME280;34442;52.362;-1.302;2022-08-11T13:22:19;100809.88;;;29.52;40.09
48652;BME280;34442;52.362;-1.302;2022-08-11T13:24:48;100806.31;;;29.60;40.05
48652;BME280;34442;52.362;-1.302;2022-08-11T13:27:17;100806.75;;;29.45;40.10
48652;BME280;34442;52.362;-1.302;2022-08-11T13:29:45;100800.53;;;29.31;40.69
48652;BME280;34442;52.362;-1.302;2022-08-11T13:32:13;100806.38;;;29.29;40.80
48652;BME280;34442;52.362;-1.302;2022-08-11T13:34:41;100799.41;;;29.40;40.75
48652;BME280;34442;52.362;-1.302;2022-08-11T13:37:09;100805.09;;;29.35;40.33
48652;BME280;34442;52.362;-1.302;2022-08-11T13:39:40;100797.78;;;29.48;38.50
48652;BME280;34442;52.362;-1.302;2022-08-11T13:42:14;100795.06;;;29.57;38.76
48652;BME280;34442;52.362;-1.302;2022-08-11T13:44:41;100795.50;;;29.50;38.97
48652;BME280;34442;52.362;-1.302;2022-08-11T13:47:11;100793.56;;;29.51;38.12
48652;BME280;34442;52.362;-1.302;2022-08-11T13:49:39;100780.03;;;29.49;37.26
48652;BME280;34442;52.362;-1.302;2022-08-11T13:52:09;100781.72;;;29.67;35.11
48652;BME280;34442;52.362;-1.302;2022-08-11T13:54:38;100771.59;;;29.98;37.21
48652;BME280;34442;52.362;-1.302;2022-08-11T13:57:07;100778.28;;;29.88;37.37
48652;BME280;34442;52.362;-1.302;2022-08-11T13:59:34;100776.66;;;29.61;38.03
48652;BME280;34442;52.362;-1.302;2022-08-11T14:02:03;100779.75;;;29.77;35.30
48652;BME280;34442;52.362;-1.302;2022-08-11T14:07:17;100771.09;;;29.87;36.12
48652;BME280;34442;52.362;-1.302;2022-08-11T14:09:47;100764.72;;;29.86;36.80
48652;BME280;34442;52.362;-1.302;2022-08-11T14:12:24;100766.38;;;29.96;33.92
48652;BME280;34442;52.362;-1.302;2022-08-11T14:15:15;100766.66;;;30.03;34.26
48652;BME280;34442;52.362;-1.302;2022-08-11T14:17:49;100768.00;;;29.88;33.93
48652;BME280;34442;52.362;-1.302;2022-08-11T14:20:17;100766.22;;;29.75;36.18
48652;BME280;34442;52.362;-1.302;2022-08-11T14:22:45;100759.69;;;29.80;35.76
48652;BME280;34442;52.362;-1.302;2022-08-11T14:25:13;100759.53;;;29.85;35.55
48652;BME280;34442;52.362;-1.302;2022-08-11T14:27:43;100766.22;;;29.75;35.06
48652;BME280;34442;52.362;-1.302;2022-08-11T14:30:10;100749.75;;;29.87;35.16
48652;BME280;34442;52.362;-1.302;2022-08-11T14:32:56;100753.31;;;29.97;33.91
48652;BME280;34442;52.362;-1.302;2022-08-11T14:35:25;100755.25;;;30.13;33.15
48652;BME280;34442;52.362;-1.302;2022-08-11T14:37:52;100747.25;;;30.03;34.54
48652;BME280;34442;52.362;-1.302;2022-08-11T14:40:19;100736.84;;;30.00;34.55
48652;BME280;34442;52.362;-1.302;2022-08-11T14:43:03;100743.84;;;29.98;34.45
48652;BME280;34442;52.362;-1.302;2022-08-11T14:45:48;100731.63;;;29.99;34.56
48652;BME280;34442;52.362;-1.302;2022-08-11T14:48:33;100731.31;;;29.83;34.22
48652;BME280;34442;52.362;-1.302;2022-08-11T14:51:03;100740.44;;;29.75;35.08
48652;BME280;34442;52.362;-1.302;2022-08-11T14:53:30;100731.63;;;29.90;34.38
48652;BME280;34442;52.362;-1.302;2022-08-11T14:55:57;100735.06;;;29.87;34.36
48652;BME280;34442;52.362;-1.302;2022-08-11T14:58:43;100729.34;;;30.01;34.08
48652;BME280;34442;52.362;-1.302;2022-08-11T15:01:09;100728.53;;;29.83;33.25
48652;BME280;34442;52.362;-1.302;2022-08-11T15:03:57;100725.63;;;29.79;33.25
48652;BME280;34442;52.362;-1.302;2022-08-11T15:06:26;100731.00;;;29.76;34.00
48652;BME280;34442;52.362;-1.302;2022-08-11T15:08:53;100716.00;;;29.77;34.43
48652;BME280;34442;52.362;-1.302;2022-08-11T15:11:22;100713.72;;;29.61;33.10
48652;BME280;34442;52.362;-1.302;2022-08-11T15:14:09;100716.47;;;29.87;32.79
48652;BME280;34442;52.362;-1.302;2022-08-11T15:16:39;100721.19;;;29.87;33.38
48652;BME280;34442;52.362;-1.302;2022-08-11T15:19:24;100716.78;;;29.95;33.09
48652;BME280;34442;52.362;-1.302;2022-08-11T15:21:53;100700.78;;;30.00;32.97
48652;BME280;34442;52.362;-1.302;2022-08-11T15:24:38;100700.09;;;30.12;32.11
48652;BME280;34442;52.362;-1.302;2022-08-11T15:27:13;100698.00;;;30.18;29.71
48652;BME280;34442;52.362;-1.302;2022-08-11T15:30:02;100703.19;;;30.28;32.59
48652;BME280;34442;52.362;-1.302;2022-08-11T15:32:49;100693.19;;;30.35;31.59
48652;BME280;34442;52.362;-1.302;2022-08-11T15:35:36;100687.97;;;30.43;31.62
48652;BME280;34442;52.362;-1.302;2022-08-11T15:38:22;100687.34;;;30.37;31.78
48652;BME280;34442;52.362;-1.302;2022-08-11T15:40:53;100693.03;;;30.32;27.46
48652;BME280;34442;52.362;-1.302;2022-08-11T15:43:47;100683.25;;;30.34;30.95
48652;BME280;34442;52.362;-1.302;2022-08-11T15:46:42;100683.06;;;30.39;30.78
48652;BME280;34442;52.362;-1.302;2022-08-11T15:49:14;100689.84;;;30.21;31.10
48652;BME280;34442;52.362;-1.302;2022-08-11T15:51:48;100680.06;;;30.06;31.85
48652;BME280;34442;52.362;-1.302;2022-08-11T15:54:18;100683.69;;;29.89;32.77
48652;BME280;34442;52.362;-1.302;2022-08-11T15:56:48;100677.97;;;29.95;32.51
48652;BME280;34442;52.362;-1.302;2022-08-11T15:59:16;100676.00;;;29.95;32.25
48652;BME280;34442;52.362;-1.302;2022-08-11T16:02:03;100676.84;;;29.96;32.38
48652;BME280;34442;52.362;-1.302;2022-08-11T16:04:44;100677.59;;;30.13;32.08
48652;BME280;34442;52.362;-1.302;2022-08-11T16:07:14;100673.97;;;30.30;31.11
48652;BME280;34442;52.362;-1.302;2022-08-11T16:09:47;100671.34;;;30.34;30.32
48652;BME280;34442;52.362;-1.302;2022-08-11T16:12:19;100668.75;;;30.29;31.39
48652;BME280;34442;52.362;-1.302;2022-08-11T16:14:53;100671.06;;;30.09;31.76
48652;BME280;34442;52.362;-1.302;2022-08-11T16:17:41;100675.03;;;29.91;33.24
48652;BME280;34442;52.362;-1.302;2022-08-11T16:20:11;100660.28;;;30.08;32.66
48652;BME280;34442;52.362;-1.302;2022-08-11T16:22:39;100668.63;;;30.08;32.65
48652;BME280;34442;52.362;-1.302;2022-08-11T16:25:10;100668.97;;;30.15;30.99
48652;BME280;34442;52.362;-1.302;2022-08-11T16:27:49;100655.06;;;30.24;29.13
48652;BME280;34442;52.362;-1.302;2022-08-11T16:30:16;100657.03;;;30.23;32.37
48652;BME280;34442;52.362;-1.302;2022-08-11T16:32:45;100658.38;;;30.17;32.33
48652;BME280;34442;52.362;-1.302;2022-08-11T16:35:20;100645.09;;;30.23;32.66